Time;durP1;ratioP1;P1;durP2;ratioP2;P2;SDS_P1;SDS_P2;PMS_P1;PMS_P2;Temp;Humidity;BMP_temperature;BMP_pressure;BME280_temperature;BME280_humidity;BME280_pressure;Samples;Min_cycle;Max_cycle;Signal;HPM_P1;HPM_P2
2023/10/24 00:00:57;;;;;;;30.67;14.52;;;;;;;;;;4970729;28;20413;-79
2023/10/24 00:03:23;;;;;;;28.73;16.45;;;;;;;;;;4954326;28;20040;-79
2023/10/24 00:05:51;;;;;;;34.90;18.15;;;;;;;;;;4971456;28;20029;-80
2023/10/24 00:08:17;;;;;;;36.10;18.92;;;;;;;;;;4965995;28;20039;-79
2023/10/24 00:10:45;;;;;;;34.10;19.83;;;;;;;;;;4966210;28;20513;-79
2023/10/24 00:13:11;;;;;;;31.17;17.92;;;;;;;;;;4951726;28;20350;-79
2023/10/24 00:15:36;;;;;;;31.10;17.08;;;;;;;;;;4951755;28;20401;-78
2023/10/24 00:18:02;;;;;;;33.58;16.83;;;;;;;;;;4951807;29;20192;-79
2023/10/24 00:20:28;;;;;;;28.90;17.27;;;;;;;;;;4957947;28;20043;-78
2023/10/24 00:22:54;;;;;;;32.90;17.63;;;;;;;;;;4956418;28;20034;-78
2023/10/24 00:25:20;;;;;;;24.27;16.23;;;;;;;;;;4949837;28;20035;-78
2023/10/24 00:27:47;;;;;;;23.52;15.55;;;;;;;;;;4960549;28;20043;-79
2023/10/24 00:30:14;;;;;;;26.48;15.38;;;;;;;;;;4951445;28;20027;-79
2023/10/24 00:32:40;;;;;;;27.75;16.40;;;;;;;;;;4919024;29;20051;-80
2023/10/24 00:35:05;;;;;;;26.83;17.67;;;;;;;;;;4949746;28;20034;-79
2023/10/24 00:37:32;;;;;;;27.38;17.38;;;;;;;;;;4969829;28;20133;-78
2023/10/24 00:39:57;;;;;;;27.15;16.75;;;;;;;;;;4946675;28;20035;-78
2023/10/24 00:42:23;;;;;;;23.05;14.88;;;;;;;;;;4964246;28;20039;-80
2023/10/24 00:44:49;;;;;;;26.52;16.50;;;;;;;;;;4968883;28;20035;-81
2023/10/24 00:47:15;;;;;;;28.88;16.80;;;;;;;;;;4961786;28;20043;-79
2023/10/24 00:49:42;;;;;;;30.55;17.00;;;;;;;;;;4952998;29;20031;-81
2023/10/24 00:52:09;;;;;;;27.92;15.93;;;;;;;;;;4953836;28;20031;-80
2023/10/24 00:54:35;;;;;;;26.10;16.10;;;;;;;;;;4952451;28;20035;-80
2023/10/24 00:57:04;;;;;;;26.55;16.58;;;;;;;;;;4927877;28;20027;-81
2023/10/24 00:59:30;;;;;;;27.55;15.63;;;;;;;;;;4962823;28;20105;-80
2023/10/24 01:01:58;;;;;;;28.88;16.35;;;;;;;;;;4955091;28;20046;-80
2023/10/24 01:04:24;;;;;;;27.05;16.10;;;;;;;;;;4953077;29;20039;-80
2023/10/24 01:06:49;;;;;;;35.88;16.33;;;;;;;;;;4954126;29;20023;-79
2023/10/24 01:09:15;;;;;;;27.50;16.77;;;;;;;;;;4969577;28;20510;-80
2023/10/24 01:11:41;;;;;;;32.40;17.33;;;;;;;;;;4961907;28;20405;-80
2023/10/24 01:14:07;;;;;;;27.67;15.43;;;;;;;;;;4953842;28;20445;-80
2023/10/24 01:16:33;;;;;;;26.52;16.83;;;;;;;;;;4965611;28;20126;-80
2023/10/24 01:19:00;;;;;;;26.95;17.00;;;;;;;;;;4972963;28;20336;-80
2023/10/24 01:21:26;;;;;;;26.25;14.88;;;;;;;;;;4970261;28;20031;-79
2023/10/24 01:23:54;;;;;;;27.70;16.17;;;;;;;;;;4961341;28;20035;-80
2023/10/24 01:26:20;;;;;;;28.70;17.10;;;;;;;;;;4962032;28;20035;-79
2023/10/24 01:28:46;;;;;;;31.63;17.02;;;;;;;;;;4967604;28;20038;-81
2023/10/24 01:31:12;;;;;;;28.50;15.55;;;;;;;;;;4962671;28;20074;-80
2023/10/24 01:33:38;;;;;;;26.17;16.02;;;;;;;;;;4940400;28;20027;-79
2023/10/24 01:36:04;;;;;;;29.35;15.75;;;;;;;;;;4963362;28;20408;-80
2023/10/24 01:38:29;;;;;;;22.38;15.00;;;;;;;;;;4953946;28;20069;-80
2023/10/24 01:40:56;;;;;;;23.58;14.07;;;;;;;;;;4952784;29;20035;-80
2023/10/24 01:43:23;;;;;;;27.00;14.25;;;;;;;;;;4962340;28;20023;-80
2023/10/24 01:45:49;;;;;;;21.48;13.43;;;;;;;;;;4954163;28;20441;-81
2023/10/24 01:48:15;;;;;;;28.17;14.68;;;;;;;;;;4952387;29;20169;-80
2023/10/24 01:50:40;;;;;;;25.85;14.77;;;;;;;;;;4937010;29;20066;-80
2023/10/24 01:53:06;;;;;;;27.42;13.77;;;;;;;;;;4952612;29;20023;-79
2023/10/24 01:55:32;;;;;;;23.58;13.00;;;;;;;;;;4961141;28;20039;-80
2023/10/24 01:57:57;;;;;;;21.02;13.45;;;;;;;;;;4940470;29;20082;-79
2023/10/24 02:00:23;;;;;;;27.40;14.38;;;;;;;;;;4940445;29;20045;-79
2023/10/24 02:02:53;;;;;;;38.55;14.85;;;;;;;;;;4956578;29;20082;-80
2023/10/24 02:05:19;;;;;;;29.92;14.52;;;;;;;;;;4957428;29;20401;-81
2023/10/24 02:07:45;;;;;;;32.47;14.82;;;;;;;;;;4939889;29;20028;-80
2023/10/24 02:10:11;;;;;;;27.70;14.43;;;;;;;;;;4957547;28;20031;-79
2023/10/24 02:12:36;;;;;;;23.52;14.60;;;;;;;;;;4957556;29;20680;-79
2023/10/24 02:15:05;;;;;;;24.23;12.80;;;;;;;;;;4957113;28;20039;-79
2023/10/24 02:17:31;;;;;;;22.90;12.80;;;;;;;;;;4939958;29;20114;-79
2023/10/24 02:19:57;;;;;;;27.55;14.23;;;;;;;;;;4956984;29;20471;-79
2023/10/24 02:22:23;;;;;;;24.70;14.05;;;;;;;;;;4956095;29;20114;-81
2023/10/24 02:24:49;;;;;;;26.50;14.00;;;;;;;;;;4956273;29;20393;-80
2023/10/24 02:27:15;;;;;;;27.83;13.88;;;;;;;;;;4939784;29;20023;-80
2023/10/24 02:29:42;;;;;;;26.77;14.93;;;;;;;;;;4956047;29;20065;-80
2023/10/24 02:32:08;;;;;;;28.60;14.38;;;;;;;;;;4939801;29;20086;-79
2023/10/24 02:34:34;;;;;;;20.35;13.48;;;;;;;;;;4957928;28;20031;-80
2023/10/24 02:37:00;;;;;;;23.50;13.90;;;;;;;;;;4975140;28;20023;-79
2023/10/24 02:39:25;;;;;;;25.48;14.30;;;;;;;;;;4975870;28;20027;-79
2023/10/24 02:41:51;;;;;;;26.88;14.05;;;;;;;;;;4975068;28;20026;-79
2023/10/24 02:44:19;;;;;;;23.85;13.90;;;;;;;;;;4971422;28;20043;-78
2023/10/24 02:46:45;;;;;;;30.85;14.15;;;;;;;;;;4956532;28;20023;-81
2023/10/24 02:49:10;;;;;;;23.80;13.63;;;;;;;;;;4957329;29;20366;-79
2023/10/24 02:51:36;;;;;;;30.33;14.27;;;;;;;;;;4955864;29;20150;-81
2023/10/24 02:54:03;;;;;;;32.17;14.90;;;;;;;;;;4962941;28;20034;-80
2023/10/24 02:56:30;;;;;;;25.60;14.60;;;;;;;;;;4958858;28;20110;-80
2023/10/24 02:58:56;;;;;;;30.48;13.55;;;;;;;;;;4940408;29;20186;-79
2023/10/24 03:01:22;;;;;;;26.88;13.95;;;;;;;;;;4955410;28;20023;-79
2023/10/24 03:03:47;;;;;;;18.90;12.32;;;;;;;;;;4955607;29;20043;-79
2023/10/24 03:06:17;;;;;;;22.45;12.18;;;;;;;;;;4954822;28;20023;-79
2023/10/24 03:08:43;;;;;;;20.00;12.35;;;;;;;;;;4975817;28;20373;-78
2023/10/24 03:11:09;;;;;;;21.73;12.80;;;;;;;;;;4975410;28;20029;-79
2023/10/24 03:13:37;;;;;;;25.98;12.82;;;;;;;;;;4974285;28;20042;-79
2023/10/24 03:16:06;;;;;;;29.08;13.38;;;;;;;;;;4974869;28;20030;-79
2023/10/24 03:18:33;;;;;;;39.67;14.68;;;;;;;;;;4975731;28;20125;-79
2023/10/24 03:21:00;;;;;;;28.02;13.63;;;;;;;;;;4974277;28;20067;-78
2023/10/24 03:23:25;;;;;;;24.70;13.02;;;;;;;;;;4973883;28;20027;-78
2023/10/24 03:25:52;;;;;;;23.98;12.88;;;;;;;;;;4964240;28;20082;-80
2023/10/24 03:28:19;;;;;;;27.65;13.70;;;;;;;;;;4954373;28;20118;-79
2023/10/24 03:30:44;;;;;;;25.50;13.73;;;;;;;;;;4954260;29;20489;-79
2023/10/24 03:33:10;;;;;;;32.90;14.00;;;;;;;;;;4954505;29;20082;-79
2023/10/24 03:35:36;;;;;;;30.80;15.70;;;;;;;;;;4954211;28;20027;-79
2023/10/24 03:38:02;;;;;;;29.75;14.48;;;;;;;;;;4954157;29;20058;-79
2023/10/24 03:40:29;;;;;;;33.83;17.63;;;;;;;;;;4955309;28;20060;-79
2023/10/24 03:42:55;;;;;;;38.85;16.00;;;;;;;;;;4955148;28;20037;-80
2023/10/24 03:45:21;;;;;;;34.08;15.90;;;;;;;;;;4953734;29;20023;-80
2023/10/24 03:47:52;;;;;;;30.05;15.40;;;;;;;;;;4961348;28;20035;-79
2023/10/24 03:50:18;;;;;;;26.67;14.25;;;;;;;;;;4957863;28;20059;-80
2023/10/24 03:52:45;;;;;;;33.42;15.38;;;;;;;;;;4957651;28;20054;-79
2023/10/24 03:55:11;;;;;;;28.17;14.60;;;;;;;;;;4973632;28;20536;-78
2023/10/24 03:57:39;;;;;;;31.83;14.80;;;;;;;;;;4974353;28;20054;-80
2023/10/24 04:00:08;;;;;;;25.80;14.48;;;;;;;;;;4964074;28;20058;-78
2023/10/24 04:02:40;;;;;;;25.63;14.98;;;;;;;;;;4953728;28;20057;-81
2023/10/24 04:05:06;;;;;;;26.45;13.77;;;;;;;;;;4953851;28;20026;-80
2023/10/24 04:07:33;;;;;;;30.90;15.38;;;;;;;;;;4954486;28;20441;-80
2023/10/24 04:10:02;;;;;;;41.20;15.50;;;;;;;;;;4952870;28;20078;-80
2023/10/24 04:12:29;;;;;;;23.00;12.10;;;;;;;;;;4963465;28;20042;-80
2023/10/24 04:14:55;;;;;;;19.30;12.90;;;;;;;;;;4963156;28;20045;-79
2023/10/24 04:17:21;;;;;;;22.52;12.82;;;;;;;;;;4961259;28;20032;-80
2023/10/24 04:19:47;;;;;;;21.65;12.07;;;;;;;;;;4955079;28;20151;-79
2023/10/24 04:22:14;;;;;;;23.48;13.05;;;;;;;;;;4955034;28;20035;-79
2023/10/24 04:24:39;;;;;;;35.35;14.02;;;;;;;;;;4952824;28;20547;-78
2023/10/24 04:27:07;;;;;;;34.72;13.77;;;;;;;;;;4954106;28;20078;-80
2023/10/24 04:29:33;;;;;;;22.52;13.48;;;;;;;;;;4955344;28;20033;-79
2023/10/24 04:31:59;;;;;;;23.55;13.45;;;;;;;;;;4961024;28;20522;-80
2023/10/24 04:34:25;;;;;;;22.35;12.80;;;;;;;;;;4937309;29;20035;-78
2023/10/24 04:36:53;;;;;;;32.65;13.50;;;;;;;;;;4961100;28;20061;-79
2023/10/24 04:39:20;;;;;;;28.70;12.73;;;;;;;;;;4961745;28;20122;-80
2023/10/24 04:41:48;;;;;;;25.75;14.63;;;;;;;;;;4961041;28;20121;-80
2023/10/24 04:44:14;;;;;;;28.75;14.77;;;;;;;;;;4947579;28;20510;-80
2023/10/24 04:46:40;;;;;;;32.00;14.05;;;;;;;;;;4954599;28;20043;-79
2023/10/24 04:49:06;;;;;;;29.50;13.45;;;;;;;;;;4954074;28;20029;-80
2023/10/24 04:51:32;;;;;;;34.42;14.43;;;;;;;;;;4957026;28;20495;-80
2023/10/24 04:53:58;;;;;;;27.10;13.57;;;;;;;;;;4953934;28;20121;-80
2023/10/24 04:56:25;;;;;;;28.67;12.93;;;;;;;;;;4961326;28;20070;-80
2023/10/24 04:58:54;;;;;;;24.33;11.90;;;;;;;;;;4953379;28;20057;-78
2023/10/24 05:01:23;;;;;;;25.02;12.32;;;;;;;;;;4950214;28;20363;-80
2023/10/24 05:03:58;;;;;;;31.02;13.90;;;;;;;;;;4954120;28;20083;-78
2023/10/24 05:06:24;;;;;;;25.75;14.10;;;;;;;;;;4953029;28;20063;-80
2023/10/24 05:08:50;;;;;;;24.63;12.80;;;;;;;;;;4957488;28;20082;-79
2023/10/24 05:11:17;;;;;;;30.52;13.27;;;;;;;;;;4956407;28;20046;-81
2023/10/24 05:13:42;;;;;;;34.35;13.30;;;;;;;;;;4961219;28;20114;-78
2023/10/24 05:16:08;;;;;;;34.58;14.35;;;;;;;;;;4953552;28;20063;-79
2023/10/24 05:18:34;;;;;;;38.38;15.18;;;;;;;;;;4953133;28;20055;-77
2023/10/24 05:21:01;;;;;;;35.42;13.75;;;;;;;;;;4953528;28;20034;-79
2023/10/24 05:23:30;;;;;;;22.88;12.45;;;;;;;;;;4960351;28;20398;-78
2023/10/24 05:25:56;;;;;;;23.80;11.98;;;;;;;;;;4952348;28;20111;-78
2023/10/24 05:28:23;;;;;;;22.92;11.23;;;;;;;;;;4956685;28;20026;-79
2023/10/24 05:30:48;;;;;;;26.63;11.82;;;;;;;;;;4953120;28;20039;-78
2023/10/24 05:33:14;;;;;;;26.05;11.52;;;;;;;;;;4956081;28;20035;-78
2023/10/24 05:35:47;;;;;;;27.63;12.15;;;;;;;;;;4951243;28;20039;-78
2023/10/24 05:38:13;;;;;;;23.25;10.80;;;;;;;;;;4952809;28;20038;-78
2023/10/24 05:40:41;;;;;;;21.00;11.10;;;;;;;;;;4936289;28;20492;-78
2023/10/24 05:43:07;;;;;;;28.30;11.60;;;;;;;;;;4958709;28;20504;-78
2023/10/24 05:45:32;;;;;;;24.95;11.63;;;;;;;;;;4951796;28;20098;-78
2023/10/24 05:47:58;;;;;;;18.60;9.88;;;;;;;;;;4946324;28;20027;-79
2023/10/24 05:50:25;;;;;;;28.13;12.07;;;;;;;;;;4952488;28;20357;-78
2023/10/24 05:52:50;;;;;;;29.75;11.30;;;;;;;;;;4962770;28;20458;-78
2023/10/24 05:55:17;;;;;;;20.92;11.63;;;;;;;;;;4962601;28;20129;-77
2023/10/24 05:57:42;;;;;;;20.13;9.88;;;;;;;;;;4959752;28;20175;-79
2023/10/24 06:00:09;;;;;;;23.42;9.25;;;;;;;;;;4962929;28;20108;-78
2023/10/24 06:02:35;;;;;;;21.67;9.30;;;;;;;;;;4955977;28;20050;-78
2023/10/24 06:05:00;;;;;;;20.13;9.00;;;;;;;;;;4960238;28;20380;-78
2023/10/24 06:07:27;;;;;;;24.13;10.02;;;;;;;;;;4956769;28;20031;-79
2023/10/24 06:09:52;;;;;;;22.95;9.88;;;;;;;;;;4961253;28;20450;-78
2023/10/24 06:12:21;;;;;;;15.77;8.82;;;;;;;;;;4962702;28;20045;-79
2023/10/24 06:14:49;;;;;;;20.75;8.88;;;;;;;;;;4967277;28;20040;-77
2023/10/24 06:17:17;;;;;;;16.08;9.23;;;;;;;;;;4957067;28;20039;-78
2023/10/24 06:19:45;;;;;;;14.65;8.73;;;;;;;;;;4954126;28;20102;-78
2023/10/24 06:22:11;;;;;;;17.30;9.77;;;;;;;;;;4963506;28;20070;-78
2023/10/24 06:24:36;;;;;;;21.60;9.82;;;;;;;;;;4958961;28;20069;-78
2023/10/24 06:27:03;;;;;;;21.20;9.00;;;;;;;;;;4967039;28;20036;-79
2023/10/24 06:29:32;;;;;;;23.75;9.75;;;;;;;;;;4956907;28;20508;-77
2023/10/24 06:31:58;;;;;;;22.75;9.27;;;;;;;;;;4966844;28;20049;-78
2023/10/24 06:34:23;;;;;;;19.25;9.32;;;;;;;;;;4973094;28;20086;-77
2023/10/24 06:36:49;;;;;;;21.88;10.38;;;;;;;;;;4980047;28;20038;-77
2023/10/24 06:39:15;;;;;;;17.13;9.95;;;;;;;;;;4976687;28;20499;-77
2023/10/24 06:41:42;;;;;;;18.67;9.48;;;;;;;;;;4972708;28;20027;-78
2023/10/24 06:44:09;;;;;;;23.02;10.52;;;;;;;;;;4974169;28;20396;-77
2023/10/24 06:46:34;;;;;;;18.63;10.60;;;;;;;;;;4957883;28;20042;-79
2023/10/24 06:49:01;;;;;;;19.75;10.10;;;;;;;;;;4975982;28;20054;-77
2023/10/24 06:51:27;;;;;;;18.58;10.50;;;;;;;;;;4975451;28;20107;-77
2023/10/24 06:53:53;;;;;;;23.42;11.10;;;;;;;;;;4941018;29;20037;-77
2023/10/24 06:56:24;;;;;;;17.45;11.32;;;;;;;;;;4955889;29;20043;-75
2023/10/24 06:58:51;;;;;;;22.15;10.88;;;;;;;;;;4955886;28;20023;-76
2023/10/24 07:01:16;;;;;;;24.48;11.52;;;;;;;;;;4968607;28;20168;-78
2023/10/24 07:03:44;;;;;;;22.40;10.82;;;;;;;;;;4955765;29;20051;-77
2023/10/24 07:06:10;;;;;;;31.42;11.68;;;;;;;;;;4969510;28;20097;-78
2023/10/24 07:08:38;;;;;;;21.50;11.80;;;;;;;;;;4974516;28;20071;-78
2023/10/24 07:11:04;;;;;;;19.40;10.45;;;;;;;;;;4973558;28;20122;-77
2023/10/24 07:13:29;;;;;;;22.67;10.77;;;;;;;;;;4973180;28;20043;-79
2023/10/24 07:15:56;;;;;;;21.67;11.27;;;;;;;;;;4965574;28;20145;-80
2023/10/24 07:18:22;;;;;;;28.00;12.70;;;;;;;;;;4954088;28;20038;-79
2023/10/24 07:20:49;;;;;;;24.52;12.43;;;;;;;;;;4954284;28;20047;-80
2023/10/24 07:23:15;;;;;;;26.95;13.13;;;;;;;;;;4960643;28;20446;-79
2023/10/24 07:25:41;;;;;;;28.58;14.25;;;;;;;;;;4973601;28;20030;-78
2023/10/24 07:28:08;;;;;;;27.75;12.48;;;;;;;;;;4977214;28;20496;-81
2023/10/24 07:30:35;;;;;;;25.23;12.50;;;;;;;;;;4974330;28;20193;-80
2023/10/24 07:33:02;;;;;;;31.35;12.70;;;;;;;;;;4972180;28;20512;-78
2023/10/24 07:35:27;;;;;;;24.95;12.88;;;;;;;;;;4954572;28;20122;-79
2023/10/24 07:37:54;;;;;;;26.98;12.70;;;;;;;;;;4963718;28;20396;-77
2023/10/24 07:40:19;;;;;;;24.83;12.73;;;;;;;;;;4941373;28;20031;-79
2023/10/24 07:42:45;;;;;;;28.25;13.02;;;;;;;;;;4974454;28;20045;-78
2023/10/24 07:45:13;;;;;;;27.92;12.68;;;;;;;;;;4974348;28;20038;-78
2023/10/24 07:47:39;;;;;;;24.10;11.73;;;;;;;;;;4975161;28;20042;-78
2023/10/24 07:50:11;;;;;;;29.15;11.23;;;;;;;;;;4960141;28;20026;-79
2023/10/24 07:52:38;;;;;;;21.85;10.63;;;;;;;;;;4974967;28;20130;-79
2023/10/24 07:55:04;;;;;;;23.13;11.23;;;;;;;;;;4964059;28;20439;-79
2023/10/24 07:57:31;;;;;;;27.02;12.82;;;;;;;;;;4956853;28;20485;-79
2023/10/24 07:59:58;;;;;;;20.30;10.73;;;;;;;;;;4955504;28;20676;-79
2023/10/24 08:02:23;;;;;;;21.02;10.95;;;;;;;;;;4956242;28;20121;-77
2023/10/24 08:04:51;;;;;;;27.80;11.23;;;;;;;;;;4962901;28;20484;-77
2023/10/24 08:07:18;;;;;;;19.75;11.80;;;;;;;;;;4963102;28;20489;-77
2023/10/24 08:09:46;;;;;;;19.48;11.52;;;;;;;;;;4970004;28;20058;-78
2023/10/24 08:12:12;;;;;;;27.98;11.88;;;;;;;;;;4952538;28;20129;-78
2023/10/24 08:14:40;;;;;;;22.75;10.75;;;;;;;;;;4948202;28;20053;-77
2023/10/24 08:17:08;;;;;;;18.30;10.68;;;;;;;;;;4971129;28;20047;-77
2023/10/24 08:19:33;;;;;;;24.92;11.55;;;;;;;;;;4953577;29;20039;-79
2023/10/24 08:21:59;;;;;;;27.10;11.32;;;;;;;;;;4954558;29;20046;-78
2023/10/24 08:24:25;;;;;;;20.02;9.63;;;;;;;;;;4955427;28;20382;-79
2023/10/24 08:26:52;;;;;;;23.10;10.02;;;;;;;;;;4937692;28;20049;-79
2023/10/24 08:29:17;;;;;;;19.55;9.95;;;;;;;;;;4974285;28;20019;-79
2023/10/24 08:31:44;;;;;;;19.30;9.65;;;;;;;;;;4941163;28;20093;-79
2023/10/24 08:34:12;;;;;;;20.17;8.73;;;;;;;;;;4973907;28;20042;-78
2023/10/24 08:36:37;;;;;;;23.02;8.85;;;;;;;;;;4972508;28;20150;-79
2023/10/24 08:39:03;;;;;;;18.52;9.07;;;;;;;;;;4952821;28;20072;-79
2023/10/24 08:41:33;;;;;;;19.42;8.38;;;;;;;;;;4954371;29;20046;-78
2023/10/24 08:44:05;;;;;;;23.38;10.25;;;;;;;;;;4939643;29;20034;-78
2023/10/24 08:46:32;;;;;;;17.42;8.55;;;;;;;;;;4962516;29;20139;-79
2023/10/24 08:49:12;;;;;;;21.42;9.23;;;;;;;;;;4961626;28;20038;-78
2023/10/24 08:51:37;;;;;;;19.48;9.15;;;;;;;;;;4960315;29;20424;-78
2023/10/24 08:54:04;;;;;;;23.90;9.32;;;;;;;;;;4961372;28;20027;-77
2023/10/24 08:56:33;;;;;;;21.20;10.13;;;;;;;;;;4955537;28;20114;-77
2023/10/24 08:58:59;;;;;;;19.90;10.20;;;;;;;;;;4975100;28;20027;-79
2023/10/24 09:01:27;;;;;;;22.15;10.57;;;;;;;;;;4975534;28;20039;-78
2023/10/24 09:03:58;;;;;;;24.60;11.23;;;;;;;;;;4944215;29;20070;-80
2023/10/24 09:06:25;;;;;;;18.50;9.63;;;;;;;;;;4948704;29;20505;-78
2023/10/24 09:08:51;;;;;;;26.00;10.82;;;;;;;;;;4954547;28;20074;-77
2023/10/24 09:11:17;;;;;;;23.20;11.90;;;;;;;;;;4965446;28;20079;-79
2023/10/24 09:13:44;;;;;;;27.15;12.48;;;;;;;;;;4956845;29;20485;-78
2023/10/24 09:16:11;;;;;;;27.95;12.95;;;;;;;;;;4954604;29;20050;-78
2023/10/24 09:18:40;;;;;;;30.10;13.60;;;;;;;;;;4967714;28;20130;-78
2023/10/24 09:21:07;;;;;;;31.80;14.30;;;;;;;;;;4973056;28;20035;-77
2023/10/24 09:23:35;;;;;;;22.73;14.65;;;;;;;;;;4972822;28;20023;-78
2023/10/24 09:26:03;;;;;;;33.00;13.40;;;;;;;;;;4972657;28;20031;-78
2023/10/24 09:28:29;;;;;;;31.42;13.05;;;;;;;;;;4972663;28;20069;-78
2023/10/24 09:30:59;;;;;;;24.30;14.00;;;;;;;;;;4959599;28;20043;-77
2023/10/24 09:33:27;;;;;;;32.63;14.98;;;;;;;;;;4954827;28;20046;-77
2023/10/24 09:35:54;;;;;;;27.90;14.90;;;;;;;;;;4953511;28;20082;-78
2023/10/24 09:38:24;;;;;;;29.90;14.80;;;;;;;;;;4954942;28;20038;-78
2023/10/24 09:40:54;;;;;;;28.48;14.10;;;;;;;;;;4953502;29;20122;-76
2023/10/24 09:43:24;;;;;;;26.25;14.57;;;;;;;;;;4963327;28;20069;-78
2023/10/24 09:45:53;;;;;;;34.33;16.38;;;;;;;;;;4973400;28;20042;-79
2023/10/24 09:48:22;;;;;;;22.80;13.27;;;;;;;;;;4972674;28;20381;-79
2023/10/24 09:50:53;;;;;;;24.70;11.98;;;;;;;;;;4970620;28;20134;-77
2023/10/24 09:53:19;;;;;;;28.13;11.77;;;;;;;;;;4971687;28;20046;-78
2023/10/24 09:55:49;;;;;;;24.15;12.30;;;;;;;;;;4966186;28;20118;-79
2023/10/24 09:58:18;;;;;;;23.67;9.18;;;;;;;;;;4972390;28;20351;-79
2023/10/24 10:00:48;;;;;;;18.67;9.50;;;;;;;;;;4971837;28;20043;-78
2023/10/24 10:03:35;;;;;;;21.02;9.52;;;;;;;;;;4963011;28;20493;-78
2023/10/24 10:06:05;;;;;;;16.55;8.07;;;;;;;;;;4954842;28;20221;-79
2023/10/24 10:08:38;;;;;;;21.20;7.55;;;;;;;;;;4946951;28;20485;-78
2023/10/24 10:11:05;;;;;;;25.48;8.85;;;;;;;;;;4972411;28;20038;-79
2023/10/24 10:13:54;;;;;;;16.38;7.63;;;;;;;;;;4972291;28;20056;-79
2023/10/24 10:16:38;;;;;;;27.08;8.32;;;;;;;;;;4956864;28;20405;-79
2023/10/24 10:19:35;;;;;;;20.85;8.18;;;;;;;;;;4973997;28;20163;-79
2023/10/24 10:22:38;;;;;;;20.08;8.32;;;;;;;;;;4957066;28;20043;-79
2023/10/24 10:25:22;;;;;;;17.05;7.75;;;;;;;;;;4956571;29;20036;-79
2023/10/24 10:28:11;;;;;;;15.50;8.00;;;;;;;;;;4956847;28;20055;-79
2023/10/24 10:31:03;;;;;;;21.80;7.70;;;;;;;;;;4954962;29;20051;-78
2023/10/24 10:33:30;;;;;;;22.98;6.78;;;;;;;;;;4954545;28;20354;-79
2023/10/24 10:36:02;;;;;;;13.85;5.18;;;;;;;;;;4955217;29;20483;-78
2023/10/24 10:38:48;;;;;;;21.02;6.60;;;;;;;;;;4939905;29;20035;-78
2023/10/24 10:41:29;;;;;;;17.92;5.95;;;;;;;;;;4954542;29;20062;-78
2023/10/24 10:43:58;;;;;;;19.67;6.95;;;;;;;;;;4957277;29;20503;-80
2023/10/24 10:46:28;;;;;;;19.08;7.68;;;;;;;;;;4956982;28;20023;-79
2023/10/24 10:48:59;;;;;;;14.95;7.18;;;;;;;;;;4956799;29;20035;-80
2023/10/24 10:51:38;;;;;;;16.70;7.18;;;;;;;;;;4940095;29;20028;-78
2023/10/24 10:54:12;;;;;;;20.00;7.70;;;;;;;;;;4954362;29;20094;-78
2023/10/24 10:56:40;;;;;;;18.08;6.38;;;;;;;;;;4954948;29;20066;-79
2023/10/24 10:59:09;;;;;;;18.15;5.88;;;;;;;;;;4939041;29;20433;-79
2023/10/24 11:01:57;;;;;;;13.07;5.57;;;;;;;;;;4955128;29;20278;-79
2023/10/24 11:04:30;;;;;;;15.90;6.45;;;;;;;;;;4955710;29;20046;-79
2023/10/24 11:06:59;;;;;;;19.58;6.40;;;;;;;;;;4954013;29;20039;-79
2023/10/24 11:09:35;;;;;;;23.10;6.53;;;;;;;;;;4954035;29;20043;-79
2023/10/24 11:12:25;;;;;;;21.33;6.70;;;;;;;;;;4954887;29;20497;-80
2023/10/24 11:15:06;;;;;;;23.25;7.30;;;;;;;;;;4956187;29;20074;-78
2023/10/24 11:17:33;;;;;;;18.38;4.82;;;;;;;;;;4956093;29;20135;-78
2023/10/24 11:20:00;;;;;;;15.13;4.97;;;;;;;;;;4956097;28;20069;-80
2023/10/24 11:22:31;;;;;;;14.98;5.20;;;;;;;;;;4955947;29;20066;-79
2023/10/24 11:24:58;;;;;;;14.70;5.28;;;;;;;;;;4932183;29;20050;-79
2023/10/24 11:27:24;;;;;;;22.35;5.75;;;;;;;;;;4956865;28;20575;-79
2023/10/24 11:29:50;;;;;;;19.95;5.90;;;;;;;;;;4963853;28;20066;-78
2023/10/24 11:32:19;;;;;;;20.75;6.63;;;;;;;;;;4959208;28;20031;-78
2023/10/24 11:34:46;;;;;;;28.30;7.20;;;;;;;;;;4974948;28;20039;-78
2023/10/24 11:37:13;;;;;;;16.77;5.65;;;;;;;;;;4970922;28;20047;-80
2023/10/24 11:39:43;;;;;;;17.42;5.32;;;;;;;;;;4956148;29;20374;-78
2023/10/24 11:42:10;;;;;;;15.25;5.10;;;;;;;;;;4956005;28;20046;-79
2023/10/24 11:44:35;;;;;;;19.50;5.95;;;;;;;;;;4955513;28;20027;-82
2023/10/24 11:47:04;;;;;;;16.33;5.78;;;;;;;;;;4958231;29;20050;-80
2023/10/24 11:49:34;;;;;;;22.38;6.03;;;;;;;;;;4956252;28;20111;-81
2023/10/24 11:52:00;;;;;;;16.38;5.57;;;;;;;;;;4953181;29;20046;-79
2023/10/24 11:54:26;;;;;;;14.35;5.80;;;;;;;;;;4970249;28;20489;-79
2023/10/24 11:56:54;;;;;;;13.38;4.95;;;;;;;;;;4954415;29;20556;-80
2023/10/24 11:59:20;;;;;;;20.40;5.55;;;;;;;;;;4955044;29;20169;-78
2023/10/24 12:01:46;;;;;;;19.90;5.65;;;;;;;;;;4954065;29;20050;-79
2023/10/24 12:04:13;;;;;;;17.52;4.88;;;;;;;;;;4958956;28;20488;-80
2023/10/24 12:06:39;;;;;;;12.23;5.20;;;;;;;;;;4958116;28;20604;-79
2023/10/24 12:09:06;;;;;;;14.35;6.38;;;;;;;;;;4953853;29;20023;-81
2023/10/24 12:11:33;;;;;;;15.00;5.43;;;;;;;;;;4953834;29;20051;-80
2023/10/24 12:14:05;;;;;;;13.90;6.00;;;;;;;;;;4955703;28;20027;-78
2023/10/24 12:16:31;;;;;;;19.67;4.95;;;;;;;;;;4962871;28;20497;-79
2023/10/24 12:18:57;;;;;;;15.30;5.78;;;;;;;;;;4959620;28;20496;-78
2023/10/24 12:21:26;;;;;;;17.85;5.40;;;;;;;;;;4953127;29;20046;-79
2023/10/24 12:23:52;;;;;;;16.80;6.00;;;;;;;;;;4956900;28;20110;-78
2023/10/24 12:26:19;;;;;;;26.10;5.78;;;;;;;;;;4956647;29;20535;-81
2023/10/24 12:28:45;;;;;;;17.38;6.18;;;;;;;;;;4965456;28;20027;-79
2023/10/24 12:31:12;;;;;;;13.65;5.07;;;;;;;;;;4959457;28;20104;-80
2023/10/24 12:33:39;;;;;;;17.30;5.40;;;;;;;;;;4974622;28;20110;-81
2023/10/24 12:36:06;;;;;;;18.38;5.78;;;;;;;;;;4958065;28;20061;-80
2023/10/24 12:38:35;;;;;;;12.02;4.60;;;;;;;;;;4955444;29;20027;-80
2023/10/24 12:41:01;;;;;;;15.95;5.78;;;;;;;;;;4955380;28;20031;-79
2023/10/24 12:43:27;;;;;;;24.63;6.13;;;;;;;;;;4955226;29;20335;-77
2023/10/24 12:45:54;;;;;;;33.03;7.38;;;;;;;;;;4954065;28;20043;-77
2023/10/24 12:48:19;;;;;;;16.75;6.18;;;;;;;;;;4955186;28;20473;-81
2023/10/24 12:50:45;;;;;;;19.15;4.95;;;;;;;;;;4955084;28;20039;-78
2023/10/24 12:53:12;;;;;;;19.67;4.90;;;;;;;;;;4954263;29;20027;-78
2023/10/24 12:55:38;;;;;;;19.52;5.05;;;;;;;;;;4955613;28;20051;-78
2023/10/24 12:58:04;;;;;;;14.63;4.63;;;;;;;;;;4959321;28;20425;-78
2023/10/24 13:00:31;;;;;;;12.25;5.07;;;;;;;;;;4963072;29;20037;-79
2023/10/24 13:03:03;;;;;;;18.77;5.75;;;;;;;;;;4957887;28;20023;-80
2023/10/24 13:05:31;;;;;;;18.25;5.40;;;;;;;;;;4956676;29;20031;-81
2023/10/24 13:07:58;;;;;;;16.48;4.57;;;;;;;;;;4959567;28;20746;-79
2023/10/24 13:10:26;;;;;;;17.88;5.05;;;;;;;;;;4957179;28;20522;-78
2023/10/24 13:12:52;;;;;;;16.70;5.05;;;;;;;;;;4959649;28;20507;-78
2023/10/24 13:15:18;;;;;;;16.60;4.57;;;;;;;;;;4970465;28;20505;-77
2023/10/24 13:17:45;;;;;;;19.08;5.53;;;;;;;;;;4954354;28;20035;-79
2023/10/24 13:20:11;;;;;;;10.18;4.07;;;;;;;;;;4952958;28;20035;-78
2023/10/24 13:22:38;;;;;;;13.48;4.57;;;;;;;;;;4960446;28;20031;-78
2023/10/24 13:25:07;;;;;;;16.30;4.47;;;;;;;;;;4955574;28;20046;-77
2023/10/24 13:27:36;;;;;;;12.95;4.60;;;;;;;;;;4952657;28;20405;-78
2023/10/24 13:30:03;;;;;;;12.88;4.25;;;;;;;;;;4957235;28;20023;-79
2023/10/24 13:32:29;;;;;;;10.38;3.75;;;;;;;;;;4952155;28;20561;-78
2023/10/24 13:34:54;;;;;;;14.18;4.93;;;;;;;;;;4953679;29;20113;-77
2023/10/24 13:37:21;;;;;;;16.88;4.63;;;;;;;;;;4952310;29;20038;-77
2023/10/24 13:39:46;;;;;;;19.35;4.28;;;;;;;;;;4956438;28;20449;-78
2023/10/24 13:42:13;;;;;;;15.55;4.47;;;;;;;;;;4948585;28;20039;-75
2023/10/24 13:44:38;;;;;;;16.55;4.45;;;;;;;;;;4955137;28;20026;-77
2023/10/24 13:47:04;;;;;;;15.55;4.20;;;;;;;;;;4950217;28;20154;-77
2023/10/24 13:49:34;;;;;;;21.38;4.93;;;;;;;;;;4960513;28;20026;-77
2023/10/24 13:52:01;;;;;;;15.40;5.68;;;;;;;;;;4953999;28;20035;-76
2023/10/24 13:54:26;;;;;;;16.65;5.60;;;;;;;;;;4959845;28;20027;-78
2023/10/24 13:56:52;;;;;;;18.75;4.93;;;;;;;;;;4964491;28;20042;-78
2023/10/24 13:59:18;;;;;;;14.93;3.97;;;;;;;;;;4959634;28;20098;-78
2023/10/24 14:01:44;;;;;;;14.95;4.70;;;;;;;;;;4959566;28;20508;-79
2023/10/24 14:04:10;;;;;;;20.05;4.68;;;;;;;;;;4961941;28;20336;-77
2023/10/24 14:06:36;;;;;;;14.07;4.05;;;;;;;;;;4960580;28;20434;-78
2023/10/24 14:09:02;;;;;;;21.45;4.35;;;;;;;;;;4968300;28;20026;-77
2023/10/24 14:11:28;;;;;;;16.08;4.28;;;;;;;;;;4957627;29;20035;-76
2023/10/24 14:13:54;;;;;;;11.98;4.40;;;;;;;;;;4963607;28;20050;-76
2023/10/24 14:16:20;;;;;;;12.40;4.35;;;;;;;;;;4956619;28;20575;-78
2023/10/24 14:18:46;;;;;;;14.95;4.97;;;;;;;;;;4957283;28;20389;-77
2023/10/24 14:21:11;;;;;;;13.88;4.22;;;;;;;;;;4964886;28;20035;-77
2023/10/24 14:23:37;;;;;;;15.77;4.32;;;;;;;;;;4957125;28;20146;-78